Time;durP1;ratioP1;P1;durP2;ratioP2;P2;SDS_P1;SDS_P2;PMS_P1;PMS_P2;Temp;Humidity;BMP_temperature;BMP_pressure;BME280_temperature;BME280_humidity;BME280_pressure;Samples;Min_cycle;Max_cycle;Signal;HPM_P1;HPM_P2
2024/03/07 00:01:26;;;;;;;31.10;21.37;;;6.20;99.90;;;;;;5022469;28;20535;-77
2024/03/07 00:03:53;;;;;;;28.40;19.65;;;6.30;99.90;;;;;;5062110;27;20622;-76
2024/03/07 00:06:20;;;;;;;31.07;19.50;;;6.00;99.90;;;;;;5025365;28;20296;-76
2024/03/07 00:08:48;;;;;;;31.13;20.65;;;6.00;99.90;;;;;;5027590;28;20623;-76
2024/03/07 00:11:15;;;;;;;37.30;20.70;;;6.30;99.90;;;;;;5028860;28;20618;-76
2024/03/07 00:13:42;;;;;;;28.35;20.05;;;;;;;;;;5060167;27;21176;-76
2024/03/07 00:16:10;;;;;;;30.87;19.17;;;;;;;;;;5021485;28;20217;-76
2024/03/07 00:18:39;;;;;;;34.58;22.02;;;6.50;99.90;;;;;;5026349;28;20631;-76
2024/03/07 00:21:05;;;;;;;31.93;22.60;;;6.30;99.90;;;;;;5020209;28;20251;-76
2024/03/07 00:23:33;;;;;;;28.17;20.08;;;6.10;99.90;;;;;;5058119;27;21164;-76
2024/03/07 00:26:00;;;;;;;32.03;21.67;;;;;;;;;;5026975;28;20265;-76
2024/03/07 00:28:32;;;;;;;32.20;22.07;;;;;;;;;;5023789;28;20201;-76
2024/03/07 00:30:59;;;;;;;35.83;21.52;;;5.90;99.90;;;;;;5025510;28;20631;-76
2024/03/07 00:33:26;;;;;;;36.50;22.85;;;6.20;99.90;;;;;;5056777;27;20295;-76
2024/03/07 00:35:54;;;;;;;33.55;23.45;;;6.00;99.90;;;;;;5026637;28;20235;-76
2024/03/07 00:38:21;;;;;;;36.10;22.67;;;5.80;99.90;;;;;;5026405;28;20216;-76
2024/03/07 00:40:49;;;;;;;41.50;25.20;;;;;;;;;;5015967;28;20764;-76
2024/03/07 00:43:15;;;;;;;34.38;22.45;;;5.90;99.90;;;;;;5025609;28;20220;-76
2024/03/07 00:45:43;;;;;;;37.88;23.80;;;;;;;;;;5023765;28;20231;-76
2024/03/07 00:48:11;;;;;;;32.97;23.17;;;5.80;99.90;;;;;;5016953;28;20291;-76
2024/03/07 00:50:37;;;;;;;36.47;23.75;;;6.00;99.90;;;;;;5039850;27;20666;-76
2024/03/07 00:53:06;;;;;;;40.55;24.95;;;6.00;99.90;;;;;;5030391;28;20864;-77
2024/03/07 00:55:33;;;;;;;35.60;22.25;;;;;;;;;;5025969;28;20303;-76
2024/03/07 00:58:00;;;;;;;34.80;20.95;;;;;;;;;;5025310;28;20208;-76
2024/03/07 01:00:28;;;;;;;36.83;23.65;;;;;;;;;;5037104;27;20228;-76
2024/03/07 01:02:56;;;;;;;34.83;21.00;;;;;;;;;;5038352;27;20755;-77
2024/03/07 01:05:23;;;;;;;39.60;24.48;;;;;;;;;;5033144;28;20219;-76
2024/03/07 01:07:50;;;;;;;35.67;22.75;;;5.60;99.90;;;;;;5031183;28;20235;-76
2024/03/07 01:10:18;;;;;;;35.55;22.52;;;5.70;99.90;;;;;;5029291;28;20204;-76
2024/03/07 01:12:46;;;;;;;31.08;22.27;;;;;;;;;;5024425;28;20207;-76
2024/03/07 01:15:14;;;;;;;38.33;25.15;;;;;;;;;;5032513;28;20211;-76
2024/03/07 01:17:41;;;;;;;35.60;23.55;;;;;;;;;;5032018;28;20677;-76
2024/03/07 01:20:11;;;;;;;32.85;22.60;;;5.40;99.90;;;;;;5028046;28;20243;-76
2024/03/07 01:22:38;;;;;;;35.45;21.90;;;;;;;;;;5027187;27;20296;-77
2024/03/07 01:25:06;;;;;;;31.38;22.38;;;5.40;99.90;;;;;;5023358;28;20229;-76
2024/03/07 01:27:34;;;;;;;33.35;22.45;;;5.60;99.90;;;;;;5029555;28;20212;-76
2024/03/07 01:30:03;;;;;;;38.00;21.05;;;5.20;99.90;;;;;;5026059;28;20201;-77
2024/03/07 01:32:30;;;;;;;34.45;22.67;;;;;;;;;;5038555;27;20221;-77
2024/03/07 01:34:58;;;;;;;32.08;22.08;;;;;;;;;;5025339;28;20232;-76
2024/03/07 01:37:25;;;;;;;34.25;22.98;;;5.20;99.90;;;;;;5014320;28;20278;-76
2024/03/07 01:39:52;;;;;;;33.92;21.80;;;5.10;99.90;;;;;;5021022;28;20221;-76
2024/03/07 01:42:24;;;;;;;36.42;21.75;;;5.70;99.90;;;;;;5028586;28;20295;-77
2024/03/07 01:44:53;;;;;;;29.90;21.10;;;5.10;99.90;;;;;;5025232;28;20236;-76
2024/03/07 01:47:19;;;;;;;33.47;23.23;;;5.80;99.90;;;;;;5024024;28;20664;-76
2024/03/07 01:49:46;;;;;;;36.20;22.88;;;4.80;99.90;;;;;;5026895;28;20630;-76
2024/03/07 01:52:14;;;;;;;34.00;22.50;;;4.90;99.90;;;;;;5026262;28;20204;-76
2024/03/07 01:54:40;;;;;;;30.70;21.88;;;4.80;99.90;;;;;;5021190;28;20228;-76
2024/03/07 01:57:08;;;;;;;37.03;23.27;;;4.80;99.90;;;;;;5028383;28;20205;-77
2024/03/07 01:59:36;;;;;;;31.98;22.58;;;4.90;99.90;;;;;;5038927;27;20220;-76
2024/03/07 02:02:04;;;;;;;38.35;23.45;;;4.80;99.90;;;;;;5032184;28;20208;-76
2024/03/07 02:04:31;;;;;;;33.78;22.52;;;4.70;99.90;;;;;;5026358;28;20207;-76
2024/03/07 02:06:58;;;;;;;34.08;22.67;;;4.40;99.90;;;;;;5028302;28;20196;-76
2024/03/07 02:09:25;;;;;;;33.22;20.98;;;4.40;99.90;;;;;;5047926;27;20212;-76
2024/03/07 02:11:52;;;;;;;39.97;22.73;;;4.40;99.90;;;;;;5032480;28;20209;-76
2024/03/07 02:14:19;;;;;;;32.88;21.85;;;;;;;;;;5027802;28;20198;-77
2024/03/07 02:16:46;;;;;;;35.38;22.27;;;4.20;99.90;;;;;;5024437;28;20203;-76
2024/03/07 02:19:15;;;;;;;37.45;22.48;;;4.10;99.90;;;;;;5028882;28;20204;-76
2024/03/07 02:21:44;;;;;;;34.28;22.80;;;4.20;99.90;;;;;;5024107;28;20509;-76
2024/03/07 02:24:11;;;;;;;33.17;20.45;;;;;;;;;;5029663;28;20680;-76
2024/03/07 02:26:39;;;;;;;31.80;22.15;;;3.90;99.90;;;;;;5027427;28;20193;-76
2024/03/07 02:29:06;;;;;;;38.05;22.83;;;3.90;99.90;;;;;;5056764;27;20219;-76
2024/03/07 02:31:36;;;;;;;29.70;19.17;;;;;;;;;;5027787;28;20716;-76
2024/03/07 02:34:04;;;;;;;34.65;21.00;;;3.70;99.90;;;;;;5025602;27;20215;-76
2024/03/07 02:36:32;;;;;;;34.15;22.75;;;3.70;99.90;;;;;;5029730;28;20211;-76
2024/03/07 02:39:01;;;;;;;33.17;21.17;;;3.80;99.90;;;;;;5030931;28;20214;-76
2024/03/07 02:41:29;;;;;;;31.92;20.17;;;;;;;;;;5023264;28;20225;-76
2024/03/07 02:43:57;;;;;;;36.55;20.73;;;3.60;99.90;;;;;;5030664;27;20208;-76
2024/03/07 02:46:26;;;;;;;30.45;19.95;;;4.10;99.90;;;;;;5021765;28;20209;-76
2024/03/07 02:48:54;;;;;;;33.03;21.83;;;;;;;;;;5026493;28;20216;-76
2024/03/07 02:51:22;;;;;;;32.75;21.63;;;;;;;;;;5041906;27;20502;-76
2024/03/07 02:53:49;;;;;;;36.70;20.60;;;3.40;99.90;;;;;;5027912;28;20211;-76
2024/03/07 02:56:18;;;;;;;33.55;21.83;;;3.60;99.90;;;;;;5064001;27;21175;-76
2024/03/07 02:58:46;;;;;;;33.40;19.85;;;;;;;;;;5026468;28;20636;-76
2024/03/07 03:01:12;;;;;;;33.35;21.95;;;2.60;99.90;;;;;;5019798;28;20220;-76
2024/03/07 03:03:42;;;;;;;32.25;21.98;;;3.20;99.90;;;;;;5018389;28;20280;-76
2024/03/07 03:06:09;;;;;;;35.20;22.35;;;3.30;99.90;;;;;;5056420;27;20204;-76
2024/03/07 03:08:37;;;;;;;33.10;21.75;;;;;;;;;;5028876;28;20228;-76
2024/03/07 03:11:04;;;;;;;38.95;21.75;;;3.30;99.90;;;;;;5028948;28;20286;-76
2024/03/07 03:13:33;;;;;;;33.67;20.45;;;2.80;99.90;;;;;;5025876;28;20665;-76
2024/03/07 03:16:03;;;;;;;30.80;19.30;;;3.10;99.90;;;;;;5025897;28;20248;-76
2024/03/07 03:18:31;;;;;;;28.17;18.67;;;3.20;99.90;;;;;;5025395;28;20214;-76
2024/03/07 03:20:58;;;;;;;28.52;19.60;;;2.80;99.90;;;;;;5025708;28;20753;-76
2024/03/07 03:23:26;;;;;;;34.63;20.90;;;;;;;;;;5024606;28;20649;-76
2024/03/07 03:25:55;;;;;;;34.47;19.60;;;3.20;99.90;;;;;;5049223;27;20261;-76
2024/03/07 03:28:22;;;;;;;34.42;19.60;;;3.10;99.90;;;;;;5026945;28;20211;-76
2024/03/07 03:30:52;;;;;;;29.25;21.08;;;2.90;99.90;;;;;;5022783;28;20201;-76
2024/03/07 03:33:21;;;;;;;25.45;17.70;;;2.80;99.90;;;;;;5026448;28;20211;-76
2024/03/07 03:35:48;;;;;;;31.42;20.05;;;2.80;99.90;;;;;;5027872;28;20210;-76
2024/03/07 03:38:18;;;;;;;30.25;20.42;;;2.70;99.90;;;;;;5025253;28;20240;-75
2024/03/07 03:40:45;;;;;;;31.73;22.13;;;;;;;;;;5023555;28;20276;-76
2024/03/07 03:43:15;;;;;;;38.58;22.95;;;;;;;;;;5019106;28;20227;-76
2024/03/07 03:45:43;;;;;;;29.08;18.42;;;2.90;99.90;;;;;;5025520;28;20208;-76
2024/03/07 03:48:13;;;;;;;31.33;19.73;;;2.90;99.90;;;;;;5025156;28;20212;-75
2024/03/07 03:50:41;;;;;;;28.25;17.95;;;;;;;;;;5025488;28;20229;-75
2024/03/07 03:53:09;;;;;;;32.75;19.45;;;;;;;;;;5026543;28;20580;-75
2024/03/07 03:55:37;;;;;;;34.85;19.83;;;;;;;;;;5032485;28;20242;-76
2024/03/07 03:58:06;;;;;;;34.45;19.88;;;2.60;99.90;;;;;;5034041;28;20205;-76
2024/03/07 04:00:34;;;;;;;38.90;21.60;;;;;;;;;;5029885;28;20250;-76
2024/03/07 04:03:03;;;;;;;29.60;20.42;;;;;;;;;;5042363;27;20669;-76
2024/03/07 04:05:32;;;;;;;37.60;22.40;;;2.60;99.90;;;;;;5030404;28;20199;-76
2024/03/07 04:07:59;;;;;;;43.20;24.42;;;;;;;;;;5022017;28;20222;-76
2024/03/07 04:10:26;;;;;;;40.88;24.70;;;2.50;99.90;;;;;;5032391;28;20223;-75
2024/03/07 04:12:55;;;;;;;34.47;21.58;;;;;;;;;;5028379;28;20258;-75
2024/03/07 04:15:26;;;;;;;34.17;21.05;;;;;;;;;;5052683;27;20632;-76
2024/03/07 04:17:54;;;;;;;36.55;22.20;;;2.30;99.90;;;;;;5051903;27;20206;-75
2024/03/07 04:20:22;;;;;;;40.97;26.05;;;;;;;;;;5028858;28;20610;-76
2024/03/07 04:22:50;;;;;;;40.08;25.77;;;2.40;99.90;;;;;;5026499;28;20584;-76
2024/03/07 04:25:17;;;;;;;41.47;24.13;;;2.30;99.90;;;;;;5054255;27;20206;-76
2024/03/07 04:27:44;;;;;;;40.50;24.48;;;2.50;99.90;;;;;;5031878;28;20207;-75
2024/03/07 04:30:14;;;;;;;41.70;24.67;;;2.30;99.90;;;;;;5031834;28;20293;-76
2024/03/07 04:32:42;;;;;;;36.40;24.15;;;2.20;99.90;;;;;;5030574;28;20222;-75
2024/03/07 04:35:10;;;;;;;41.13;25.13;;;2.30;99.90;;;;;;5074471;27;20205;-76
2024/03/07 04:37:37;;;;;;;37.75;24.45;;;;;;;;;;5049092;27;20555;-76
2024/03/07 04:40:14;;;;;;;29.02;21.20;;;2.30;99.90;;;;;;5055857;27;20667;-76
2024/03/07 04:42:42;;;;;;;40.85;23.30;;;2.30;99.90;;;;;;5028565;28;20294;-76
2024/03/07 04:45:12;;;;;;;44.38;24.08;;;2.30;99.90;;;;;;5021327;28;20209;-76
2024/03/07 04:47:39;;;;;;;35.53;23.38;;;;;;;;;;5029637;28;20224;-76
2024/03/07 04:50:07;;;;;;;38.78;23.95;;;2.30;99.90;;;;;;5027059;28;20340;-76
2024/03/07 04:52:34;;;;;;;34.95;22.23;;;1.80;99.90;;;;;;5027315;28;20203;-75
2024/03/07 04:55:01;;;;;;;34.72;22.45;;;1.80;99.90;;;;;;5046612;27;20889;-76
2024/03/07 04:57:29;;;;;;;41.70;24.58;;;2.20;99.90;;;;;;5059784;27;20535;-76
2024/03/07 04:59:56;;;;;;;37.58;24.30;;;2.20;99.90;;;;;;5037437;28;20212;-76
2024/03/07 05:02:23;;;;;;;36.60;23.15;;;;;;;;;;5034008;28;20551;-76
2024/03/07 05:04:51;;;;;;;39.67;22.20;;;2.50;99.90;;;;;;5059658;27;20206;-76
2024/03/07 05:07:18;;;;;;;37.35;23.27;;;;;;;;;;5035655;28;20252;-76
2024/03/07 05:09:46;;;;;;;36.45;22.60;;;;;;;;;;5042262;27;20205;-76
2024/03/07 05:12:13;;;;;;;33.65;23.55;;;;;;;;;;5049565;27;20209;-76
2024/03/07 05:14:41;;;;;;;39.90;21.70;;;2.50;99.90;;;;;;5043053;27;20285;-76
2024/03/07 05:17:09;;;;;;;40.83;21.80;;;2.60;99.90;;;;;;5043226;27;20575;-76
2024/03/07 05:19:36;;;;;;;32.08;20.48;;;2.60;99.90;;;;;;5054113;27;20208;-76
2024/03/07 05:22:04;;;;;;;41.58;23.42;;;2.70;99.90;;;;;;5042746;27;20724;-76
2024/03/07 05:24:32;;;;;;;33.70;20.90;;;;;;;;;;5051496;28;20206;-76
2024/03/07 05:26:59;;;;;;;36.22;22.02;;;;;;;;;;5041093;27;20203;-76
2024/03/07 05:29:26;;;;;;;31.67;20.85;;;2.20;99.90;;;;;;5057847;27;20276;-74
2024/03/07 05:31:55;;;;;;;35.38;20.48;;;2.30;99.90;;;;;;5020646;28;20288;-75
2024/03/07 05:34:23;;;;;;;37.45;20.90;;;;;;;;;;5023619;28;20219;-75
2024/03/07 05:36:50;;;;;;;35.92;22.98;;;;;;;;;;5042626;28;20205;-75
2024/03/07 05:39:18;;;;;;;34.38;22.08;;;2.10;99.90;;;;;;5026163;28;20568;-79
2024/03/07 05:41:46;;;;;;;40.42;22.65;;;2.20;99.90;;;;;;5024171;28;20316;-79
2024/03/07 05:44:13;;;;;;;36.05;20.88;;;;;;;;;;5045651;28;20200;-79
2024/03/07 05:46:45;;;;;;;41.28;23.65;;;2.00;99.90;;;;;;5057050;28;20299;-79
2024/03/07 05:49:14;;;;;;;29.95;20.80;;;2.00;99.90;;;;;;5036371;28;20200;-78
2024/03/07 05:51:44;;;;;;;33.58;21.90;;;2.30;99.90;;;;;;5026597;28;20599;-77
2024/03/07 05:54:12;;;;;;;35.83;22.60;;;;;;;;;;5009719;28;20202;-80
2024/03/07 05:56:40;;;;;;;34.92;21.98;;;1.90;99.90;;;;;;5037713;28;20208;-80
2024/03/07 05:59:09;;;;;;;38.70;22.25;;;1.60;99.90;;;;;;5047215;28;20209;-79
2024/03/07 06:01:40;;;;;;;35.08;20.67;;;;;;;;;;5031586;28;20259;-83
2024/03/07 06:04:08;;;;;;;36.80;21.65;;;1.60;99.90;;;;;;5017775;28;20594;-82
2024/03/07 06:06:37;;;;;;;40.15;24.15;;;1.60;99.90;;;;;;5025567;28;20690;-83
2024/03/07 06:09:07;;;;;;;35.88;21.35;;;1.60;99.90;;;;;;5030676;28;20227;-82
2024/03/07 06:11:35;;;;;;;41.63;22.92;;;1.10;99.90;;;;;;5028540;28;20276;-78
2024/03/07 06:14:02;;;;;;;32.55;21.42;;;1.30;99.90;;;;;;5038976;28;20206;-77
2024/03/07 06:16:32;;;;;;;38.35;21.73;;;1.90;99.90;;;;;;5037516;28;20213;-78
2024/03/07 06:18:59;;;;;;;34.42;24.75;;;0.80;99.90;;;;;;5024534;28;20200;-79
2024/03/07 06:21:26;;;;;;;32.78;21.63;;;1.70;99.90;;;;;;5043689;28;20229;-79
2024/03/07 06:23:59;;;;;;;41.97;26.13;;;1.70;99.90;;;;;;5044784;28;20218;-79
2024/03/07 06:26:37;;;;;;;42.70;24.88;;;1.80;99.90;;;;;;5023565;28;20282;-79
2024/03/07 06:29:05;;;;;;;40.63;25.88;;;1.80;99.90;;;;;;5025429;28;20258;-82
2024/03/07 06:31:32;;;;;;;39.95;27.10;;;1.80;99.90;;;;;;5036847;28;20209;-83
2024/03/07 06:33:59;;;;;;;38.17;24.92;;;1.80;99.90;;;;;;5023351;28;20214;-83
2024/03/07 06:36:26;;;;;;;42.53;27.13;;;1.80;99.90;;;;;;5079314;28;20583;-82
2024/03/07 06:38:54;;;;;;;40.47;23.85;;;0.90;99.90;;;;;;5026229;28;20212;-82
2024/03/07 06:41:21;;;;;;;42.80;24.30;;;1.30;99.90;;;;;;5045356;28;20217;-78
2024/03/07 06:43:49;;;;;;;40.33;23.67;;;;;;;;;;5093495;27;20284;-79
2024/03/07 06:46:17;;;;;;;40.03;25.17;;;2.00;99.90;;;;;;5061522;27;20202;-79
2024/03/07 06:48:45;;;;;;;39.63;25.30;;;2.20;99.90;;;;;;5065828;27;20205;-79
2024/03/07 06:51:12;;;;;;;38.50;25.95;;;;;;;;;;5046329;27;20207;-79
2024/03/07 06:53:40;;;;;;;40.80;24.33;;;;;;;;;;5048942;27;20211;-79
2024/03/07 06:56:08;;;;;;;45.00;27.42;;;2.10;99.90;;;;;;5072530;27;20564;-78
2024/03/07 06:58:38;;;;;;;33.92;22.48;;;;;;;;;;5039114;28;20211;-78
2024/03/07 07:01:09;;;;;;;38.22;23.98;;;;;;;;;;5030748;28;20308;-79
2024/03/07 07:03:39;;;;;;;38.08;23.75;;;;;;;;;;5029908;28;21565;-77
2024/03/07 07:06:42;;;;;;;38.55;23.30;;;;;;;;;;5040146;27;20649;-84
2024/03/07 07:09:10;;;;;;;30.90;22.80;;;;;;;;;;5056319;27;20607;-80
2024/03/07 07:11:38;;;;;;;44.38;26.65;;;2.30;99.90;;;;;;5041665;27;20290;-78
2024/03/07 07:14:05;;;;;;;38.90;24.45;;;2.30;99.90;;;;;;5051095;27;20245;-79
2024/03/07 07:16:33;;;;;;;38.30;25.08;;;2.40;99.90;;;;;;5060427;27;20419;-78
2024/03/07 07:19:00;;;;;;;40.00;25.95;;;2.40;99.90;;;;;;5045211;28;20197;-79
2024/03/07 07:21:27;;;;;;;38.58;25.35;;;2.50;99.90;;;;;;5048553;27;20309;-79
2024/03/07 07:23:57;;;;;;;42.78;27.55;;;2.50;99.90;;;;;;5035848;28;20683;-78
2024/03/07 07:26:25;;;;;;;38.45;24.58;;;2.60;99.90;;;;;;5042985;28;20205;-79
2024/03/07 07:28:56;;;;;;;44.55;24.65;;;2.60;99.90;;;;;;5052681;27;20203;-78
2024/03/07 07:31:24;;;;;;;37.80;25.48;;;2.60;99.90;;;;;;5040882;27;20228;-78
2024/03/07 07:33:51;;;;;;;45.63;24.67;;;2.70;99.90;;;;;;5101471;27;20594;-79
2024/03/07 07:36:18;;;;;;;40.58;24.40;;;2.80;99.90;;;;;;5099198;27;20228;-78
2024/03/07 07:38:46;;;;;;;38.38;23.45;;;2.60;99.90;;;;;;5040214;27;20207;-77
2024/03/07 07:41:13;;;;;;;36.53;24.02;;;;;;;;;;5070950;27;20212;-78
2024/03/07 07:43:41;;;;;;;38.30;22.05;;;;;;;;;;5037008;28;20210;-78
2024/03/07 07:46:09;;;;;;;32.22;22.40;;;2.80;99.90;;;;;;5067529;27;20285;-78
2024/03/07 07:48:38;;;;;;;43.83;23.65;;;;;;;;;;5095672;27;20212;-78
2024/03/07 07:51:06;;;;;;;30.70;21.00;;;;;;;;;;5041719;27;20255;-79
2024/03/07 07:53:33;;;;;;;34.08;20.30;;;;;;;;;;5036569;27;20231;-79
2024/03/07 07:55:59;;;;;;;38.05;24.85;;;2.90;99.90;;;;;;5074122;27;20315;-79
2024/03/07 07:58:26;;;;;;;39.75;24.27;;;2.90;99.90;;;;;;5068698;27;20204;-77
2024/03/07 08:00:53;;;;;;;42.03;24.30;;;2.70;99.90;;;;;;5054736;27;20211;-78
2024/03/07 08:03:22;;;;;;;36.53;24.10;;;2.80;99.90;;;;;;5042758;28;20223;-77
2024/03/07 08:05:49;;;;;;;38.10;24.33;;;2.90;99.90;;;;;;5069633;27;20532;-77
2024/03/07 08:08:18;;;;;;;41.45;26.45;;;3.00;99.90;;;;;;5104957;27;20324;-77
2024/03/07 08:10:45;;;;;;;33.50;22.50;;;;;;;;;;5110892;27;20205;-79
2024/03/07 08:13:13;;;;;;;34.33;23.17;;;;;;;;;;5072037;27;20291;-78
2024/03/07 08:15:41;;;;;;;34.05;22.73;;;;;;;;;;5062397;27;20214;-77
2024/03/07 08:18:09;;;;;;;34.80;22.42;;;;;;;;;;5098185;27;20867;-77
2024/03/07 08:20:37;;;;;;;36.30;22.17;;;3.90;99.90;;;;;;5079612;27;20197;-77
2024/03/07 08:23:04;;;;;;;37.15;22.88;;;;;;;;;;5104211;27;20233;-78
2024/03/07 08:25:31;;;;;;;37.13;22.55;;;;;;;;;;5105551;27;20279;-77
2024/03/07 08:30:55;;;;;;;36.92;22.35;;;;;;;;;;5055534;27;20220;-78
2024/03/07 08:33:22;;;;;;;31.42;20.23;;;;;;;;;;5040405;27;20230;-78
2024/03/07 08:35:52;;;;;;;34.72;21.20;;;;;;;;;;5067335;27;20993;-78
2024/03/07 08:38:20;;;;;;;33.50;22.35;;;;;;;;;;5028643;28;20287;-78
2024/03/07 08:40:47;;;;;;;40.45;21.52;;;;;;;;;;5063373;27;20208;-78
2024/03/07 08:43:14;;;;;;;33.63;24.73;;;4.20;99.90;;;;;;5038752;27;20383;-78
2024/03/07 08:45:41;;;;;;;38.10;24.30;;;4.30;99.90;;;;;;5117727;27;20659;-78
2024/03/07 08:48:08;;;;;;;38.30;22.00;;;;;;;;;;5103101;27;20571;-78
2024/03/07 08:50:37;;;;;;;33.83;20.38;;;;;;;;;;5045571;27;20204;-78
2024/03/07 08:53:05;;;;;;;31.65;20.48;;;;;;;;;;5061211;27;20284;-78
2024/03/07 08:55:35;;;;;;;27.73;19.05;;;;;;;;;;5105072;27;20724;-78
2024/03/07 08:58:02;;;;;;;32.08;19.70;;;;;;;;;;5118617;27;20205;-79
2024/03/07 09:00:30;;;;;;;34.58;20.55;;;;;;;;;;5073370;27;20578;-78
2024/03/07 09:03:03;;;;;;;33.90;21.15;;;4.50;99.90;;;;;;5041639;27;20220;-77
2024/03/07 09:05:33;;;;;;;31.25;19.50;;;;;;;;;;5079179;27;20560;-77
2024/03/07 09:08:01;;;;;;;39.88;23.00;;;4.60;99.90;;;;;;5066218;27;20213;-79
2024/03/07 09:10:30;;;;;;;35.00;24.00;;;4.60;99.90;;;;;;5055468;27;20228;-79
2024/03/07 09:12:57;;;;;;;36.22;22.20;;;4.60;99.90;;;;;;5057363;27;20245;-79
2024/03/07 09:15:24;;;;;;;32.58;21.23;;;4.70;99.90;;;;;;5080907;27;20224;-78
2024/03/07 09:17:52;;;;;;;29.00;19.38;;;;;;;;;;5075639;27;20252;-78
2024/03/07 09:20:19;;;;;;;37.53;23.25;;;4.80;99.90;;;;;;5035083;28;20216;-78
2024/03/07 09:22:54;;;;;;;31.55;21.10;;;4.80;99.90;;;;;;5040734;27;20222;-78
2024/03/07 09:25:27;;;;;;;27.58;19.50;;;4.80;99.90;;;;;;5042829;27;20235;-81
2024/03/07 09:27:56;;;;;;;30.27;18.45;;;;;;;;;;5030044;28;20231;-79
2024/03/07 09:30:25;;;;;;;27.35;19.25;;;;;;;;;;5027026;27;20279;-79
2024/03/07 09:32:54;;;;;;;28.83;18.92;;;;;;;;;;5085136;27;20250;-79
2024/03/07 09:35:22;;;;;;;25.33;17.52;;;;;;;;;;5076203;27;20203;-80
2024/03/07 09:37:49;;;;;;;28.40;19.52;;;;;;;;;;5078800;27;20291;-77
2024/03/07 09:40:16;;;;;;;29.02;19.00;;;;;;;;;;5089222;27;20659;-79
2024/03/07 09:42:47;;;;;;;27.67;18.08;;;5.40;99.90;;;;;;5027833;28;20213;-79
2024/03/07 09:45:19;;;;;;;32.97;18.58;;;5.40;99.90;;;;;;5041700;28;20554;-79
2024/03/07 09:47:48;;;;;;;26.92;18.10;;;5.60;99.90;;;;;;5031669;28;20303;-79
2024/03/07 09:50:18;;;;;;;28.02;17.90;;;5.50;99.90;;;;;;5068612;28;20212;-79
2024/03/07 09:52:49;;;;;;;29.77;18.83;;;5.50;99.90;;;;;;5040410;27;20196;-79
2024/03/07 09:55:17;;;;;;;28.55;18.17;;;;;;;;;;5045835;28;20295;-79
2024/03/07 09:57:44;;;;;;;28.35;20.00;;;;;;;;;;5023274;28;20865;-79
2024/03/07 10:00:22;;;;;;;32.10;19.55;;;;;;;;;;5060942;28;20566;-78
2024/03/07 10:02:54;;;;;;;22.23;16.58;;;5.90;99.90;;;;;;5038421;28;20211;-78
2024/03/07 10:05:23;;;;;;;30.90;20.95;;;5.90;99.90;;;;;;5068923;28;20203;-78
2024/03/07 10:07:50;;;;;;;32.40;21.13;;;6.00;99.90;;;;;;5028801;28;20196;-78
2024/03/07 10:10:17;;;;;;;39.23;20.17;;;5.90;99.90;;;;;;5035731;28;20211;-78
2024/03/07 10:12:44;;;;;;;25.98;19.50;;;6.00;99.90;;;;;;5044669;28;20982;-78
2024/03/07 10:15:12;;;;;;;30.63;18.87;;;5.90;99.90;;;;;;5108261;28;20284;-78
2024/03/07 10:17:40;;;;;;;25.83;18.92;;;6.00;99.90;;;;;;5085120;28;20721;-78
2024/03/07 10:20:13;;;;;;;27.40;18.63;;;5.90;99.90;;;;;;5046581;28;20625;-78
2024/03/07 10:22:41;;;;;;;28.23;18.50;;;6.00;99.90;;;;;;5056628;27;20216;-78
2024/03/07 10:25:08;;;;;;;31.20;18.63;;;6.00;99.50;;;;;;5069565;27;21223;-78
2024/03/07 10:27:38;;;;;;;27.83;17.70;;;6.10;99.90;;;;;;5046129;28;20717;-78
2024/03/07 10:30:07;;;;;;;27.50;18.03;;;6.30;99.00;;;;;;5067647;27;20704;-77
2024/03/07 10:32:34;;;;;;;25.25;16.38;;;6.50;97.40;;;;;;5037516;28;20635;-78
2024/03/07 10:35:03;;;;;;;27.57;18.47;;;6.50;98.00;;;;;;5066378;27;20285;-77
2024/03/07 10:37:31;;;;;;;28.15;17.00;;;6.50;97.80;;;;;;5131738;27;20637;-78
2024/03/07 10:39:58;;;;;;;42.57;18.10;;;6.50;98.00;;;;;;5014851;28;20300;-78
2024/03/07 10:42:30;;;;;;;34.10;19.33;;;6.50;98.20;;;;;;5044323;28;20622;-78
2024/03/07 10:45:03;;;;;;;32.42;19.52;;;6.50;98.70;;;;;;5097266;27;20978;-78
2024/03/07 10:47:31;;;;;;;28.57;18.10;;;6.60;98.70;;;;;;5099820;27;20205;-78
2024/03/07 10:50:14;;;;;;;29.27;20.27;;;6.60;98.50;;;;;;5045024;28;20694;-78
2024/03/07 10:52:50;;;;;;;29.60;19.60;;;6.60;98.10;;;;;;5041087;28;21183;-78
2024/03/07 10:55:25;;;;;;;25.30;18.00;;;6.60;98.60;;;;;;5048263;28;20756;-78
2024/03/07 10:57:56;;;;;;;27.40;17.53;;;6.60;98.40;;;;;;5047204;28;20625;-78
2024/03/07 11:00:35;;;;;;;29.00;20.00;;;6.60;97.90;;;;;;5063125;27;20622;-78
2024/03/07 11:03:06;;;;;;;29.93;19.20;;;6.70;98.40;;;;;;5039839;28;20650;-78
2024/03/07 11:05:34;;;;;;;34.53;19.23;;;6.70;98.40;;;;;;5079324;27;20644;-78
2024/03/07 11:08:08;;;;;;;31.13;19.10;;;6.90;98.40;;;;;;5120439;27;20614;-77
2024/03/07 11:10:36;;;;;;;27.23;18.23;;;7.10;97.70;;;;;;5037198;28;20647;-78
2024/03/07 11:13:04;;;;;;;28.10;18.57;;;7.20;97.00;;;;;;5047453;28;20625;-78
2024/03/07 11:15:33;;;;;;;25.83;17.20;;;7.10;97.50;;;;;;5110904;27;20629;-78
2024/03/07 11:18:00;;;;;;;28.67;20.00;;;7.20;97.60;;;;;;5089611;27;20706;-78
2024/03/07 11:20:28;;;;;;;31.73;20.60;;;7.20;97.00;;;;;;5088351;27;20626;-78
2024/03/07 11:22:55;;;;;;;28.03;20.20;;;7.20;96.90;;;;;;5126447;27;20638;-78
2024/03/07 11:25:26;;;;;;;28.80;17.73;;;7.30;97.30;;;;;;5033825;28;20615;-78
2024/03/07 11:27:53;;;;;;;28.00;18.03;;;7.30;97.10;;;;;;5044468;28;20633;-78
2024/03/07 11:30:22;;;;;;;27.63;18.20;;;7.50;97.00;;;;;;5059607;27;20623;-78
2024/03/07 11:32:50;;;;;;;27.73;19.13;;;7.60;96.70;;;;;;5035384;28;20637;-78
2024/03/07 11:35:22;;;;;;;27.50;18.17;;;7.60;96.50;;;;;;5063059;27;20726;-78
2024/03/07 11:37:49;;;;;;;25.40;16.60;;;7.50;96.50;;;;;;5091416;27;20666;-77
2024/03/07 11:40:51;;;;;;;26.00;17.40;;;7.60;96.30;;;;;;5023634;28;20642;-77
2024/03/07 11:43:17;;;;;;;25.37;17.43;;;7.70;97.30;;;;;;5054347;27;21251;-77
2024/03/07 11:45:52;;;;;;;26.50;17.90;;;7.80;96.70;;;;;;5048720;27;20633;-77
2024/03/07 11:48:20;;;;;;;26.20;19.50;;;7.90;97.00;;;;;;5128393;27;20615;-77
2024/03/07 11:50:48;;;;;;;26.27;17.40;;;8.00;96.90;;;;;;5064920;27;20635;-77
2024/03/07 11:53:17;;;;;;;25.40;17.90;;;8.00;96.40;;;;;;5029082;28;20624;-77
2024/03/07 11:55:45;;;;;;;26.10;18.53;;;8.00;96.70;;;;;;5027311;28;21236;-77
2024/03/07 11:58:16;;;;;;;30.83;19.07;;;8.00;96.60;;;;;;5123340;27;20615;-77
2024/03/07 12:00:44;;;;;;;26.63;18.17;;;8.00;96.60;;;;;;5071204;27;20629;-79
2024/03/07 12:03:13;;;;;;;25.50;17.90;;;8.00;96.50;;;;;;5050340;27;21253;-78
2024/03/07 12:05:41;;;;;;;30.83;19.10;;;8.00;96.70;;;;;;5017992;28;20967;-77
2024/03/07 12:08:12;;;;;;;28.87;20.27;;;8.10;96.30;;;;;;5039287;28;20643;-78
2024/03/07 12:10:43;;;;;;;28.20;18.90;;;8.00;96.40;;;;;;5080356;27;20641;-79
2024/03/07 12:13:12;;;;;;;23.50;17.70;;;7.70;96.60;;;;;;5052412;27;20618;-79
2024/03/07 12:15:40;;;;;;;34.70;21.57;;;7.90;96.60;;;;;;5086165;27;20657;-78
2024/03/07 12:18:14;;;;;;;36.10;20.83;;;8.00;96.20;;;;;;5031115;28;20625;-78
2024/03/07 12:20:42;;;;;;;28.27;19.70;;;8.10;95.90;;;;;;5041462;28;20648;-78
2024/03/07 12:23:11;;;;;;;31.20;20.30;;;8.00;96.80;;;;;;5039740;28;21306;-78
2024/03/07 12:25:38;;;;;;;30.87;21.90;;;8.00;96.40;;;;;;5036617;28;20640;-76
2024/03/07 12:28:10;;;;;;;31.63;22.80;;;8.00;96.80;;;;;;5063385;27;20663;-78
2024/03/07 12:30:49;;;;;;;32.90;22.07;;;8.00;96.40;;;;;;5041165;27;20617;-78
2024/03/07 12:33:16;;;;;;;34.80;21.63;;;8.00;96.50;;;;;;5045975;27;21094;-77
2024/03/07 12:35:44;;;;;;;29.80;21.70;;;8.00;96.30;;;;;;5044839;27;20661;-77
2024/03/07 12:38:14;;;;;;;30.80;20.33;;;7.90;96.60;;;;;;5129161;27;21189;-78
2024/03/07 12:40:41;;;;;;;38.87;22.37;;;8.00;96.30;;;;;;5005370;28;21172;-77
2024/03/07 12:43:16;;;;;;;30.63;22.70;;;7.90;96.40;;;;;;5038099;28;20658;-78
2024/03/07 12:45:49;;;;;;;34.47;22.40;;;7.80;96.20;;;;;;5087485;27;20958;-78
2024/03/07 12:48:16;;;;;;;34.93;23.60;;;7.90;96.00;;;;;;5034907;28;20631;-78
2024/03/07 12:50:46;;;;;;;31.90;23.23;;;7.80;96.00;;;;;;5037857;28;20709;-78
2024/03/07 12:53:13;;;;;;;34.80;25.60;;;7.80;96.20;;;;;;5033925;28;20694;-77
2024/03/07 12:55:42;;;;;;;37.77;22.60;;;7.70;96.10;;;;;;5043613;28;21258;-77
2024/03/07 12:58:11;;;;;;;31.37;21.90;;;7.70;96.50;;;;;;5041511;28;20630;-77
2024/03/07 13:00:38;;;;;;;34.43;21.30;;;7.60;96.80;;;;;;5092331;27;20615;-78
2024/03/07 13:03:06;;;;;;;34.20;20.90;;;7.50;97.20;;;;;;5104313;27;21256;-78
2024/03/07 13:05:33;;;;;;;34.30;21.77;;;7.50;97.30;;;;;;5051692;27;20725;-77
2024/03/07 13:08:00;;;;;;;33.97;22.47;;;7.50;97.60;;;;;;5006397;28;20724;-77
2024/03/07 13:10:27;;;;;;;33.63;22.53;;;7.30;97.60;;;;;;5040794;28;20690;-78
2024/03/07 13:12:54;;;;;;;33.83;23.57;;;7.40;97.70;;;;;;5098970;27;20624;-78